Time;durP1;ratioP1;P1;durP2;ratioP2;P2;SDS_P1;SDS_P2;PMS_P1;PMS_P2;Temp;Humidity;BMP_temperature;BMP_pressure;BME280_temperature;BME280_humidity;BME280_pressure;Samples;Min_cycle;Max_cycle;Signal;HPM_P1;HPM_P2
2023/02/15 00:00:15;;;;;;;0.60;0.60;;;;;;;0.24;96.32;98153.91;29373;206;63004;-60
2023/02/15 00:00:46;;;;;;;0.60;0.60;;;;;;;0.21;96.38;98162.28;29373;209;63019;-60
2023/02/15 00:01:18;;;;;;;1.80;1.80;;;;;;;0.18;96.22;98154.66;29373;209;63005;-59
2023/02/15 00:01:50;;;;;;;0.60;0.60;;;;;;;0.16;96.34;98154.88;29373;290;63009;-60
2023/02/15 00:02:21;;;;;;;0.60;0.60;;;;;;;0.15;96.37;98160.41;29373;224;63005;-61
2023/02/15 00:02:52;;;;;;;0.60;0.60;;;;;;;0.14;96.38;98158.75;29373;223;63009;-67
2023/02/15 00:03:23;;;;;;;0.60;0.60;;;;;;;0.14;96.76;98156.06;29373;361;63005;-60
2023/02/15 00:03:54;;;;;;;0.60;0.60;;;;;;;0.10;96.60;98158.31;29373;246;63015;-60
2023/02/15 00:04:48;;;;;;;0.60;0.60;;;;;;;0.08;96.68;98154.19;29372;228;64009;-60
2023/02/15 00:05:19;;;;;;;0.60;0.60;;;;;;;0.05;97.10;98159.91;29373;227;63009;-60
2023/02/15 00:05:50;;;;;;;0.60;0.60;;;;;;;0.03;96.92;98157.44;29373;217;63004;-60
2023/02/15 00:06:22;;;;;;;0.60;0.60;;;;;;;0.00;96.56;98158.66;29373;211;63009;-60
2023/02/15 00:06:53;;;;;;;0.60;0.60;;;;;;;-0.02;96.95;98152.72;29373;207;63004;-59
2023/02/15 00:07:25;;;;;;;0.70;0.70;;;;;;;-0.02;96.74;98159.88;29373;251;63008;-59
2023/02/15 00:07:56;;;;;;;0.60;0.60;;;;;;;-0.04;96.96;98152.09;29373;292;63004;-60
2023/02/15 00:08:27;;;;;;;0.82;0.82;;;;;;;-0.07;96.92;98147.13;29373;220;63025;-60
2023/02/15 00:08:59;;;;;;;0.70;0.70;;;;;;;-0.07;96.92;98147.13;29373;197;63005;-59
2023/02/15 00:09:30;;;;;;;0.60;0.60;;;;;;;-0.06;96.97;98145.28;29371;218;64014;-60
2023/02/15 00:10:01;;;;;;;0.60;0.60;;;;;;;-0.04;96.97;98152.09;29373;219;63000;-60
2023/02/15 00:10:33;;;;;;;0.60;0.60;;;;;;;-0.05;96.98;98139.75;29373;242;63009;-60
2023/02/15 00:11:09;;;;;;;0.70;0.70;;;;;;;-0.07;97.15;98141.78;29373;267;63005;-60
2023/02/15 00:11:42;;;;;;;6.35;6.10;;;;;;;-0.08;97.08;98140.16;29373;223;63013;-60
2023/02/15 00:12:14;;;;;;;0.60;0.60;;;;;;;-0.08;97.26;98142.00;29373;296;63004;-59
2023/02/15 00:12:45;;;;;;;0.60;0.60;;;;;;;-0.06;97.44;98130.09;29372;256;64009;-60
2023/02/15 00:13:17;;;;;;;0.60;0.60;;;;;;;-0.05;97.77;98138.94;29373;218;63004;-59
2023/02/15 00:13:48;;;;;;;0.70;0.70;;;;;;;-0.06;97.42;98135.44;29373;199;63009;-60
2023/02/15 00:14:24;;;;;;;0.68;0.68;;;;;;;-0.05;97.76;98133.59;29373;220;63004;-59
2023/02/15 00:14:55;;;;;;;0.60;0.60;;;;;;;-0.06;97.37;98132.78;29371;275;64013;-59
2023/02/15 00:15:26;;;;;;;0.60;0.60;;;;;;;-0.07;97.73;98139.13;29373;198;63004;-60
2023/02/15 00:16:06;;;;;;;0.60;0.60;;;;;;;-0.07;97.78;98136.47;29373;278;63009;-60
2023/02/15 00:16:38;;;;;;;0.70;0.70;;;;;;;-0.09;97.59;98133.16;29373;285;63005;-60
2023/02/15 00:17:10;;;;;;;0.60;0.60;;;;;;;-0.10;97.59;98131.50;29372;235;64009;-59
2023/02/15 00:17:41;;;;;;;0.70;0.70;;;;;;;-0.09;97.36;98132.34;29373;213;63005;-59
2023/02/15 00:18:13;;;;;;;0.70;0.70;;;;;;;-0.10;97.78;98131.50;29373;337;63009;-60
2023/02/15 00:18:44;;;;;;;0.60;0.60;;;;;;;-0.12;97.97;98132.72;29373;212;63005;-59
2023/02/15 00:19:17;;;;;;;0.70;0.70;;;;;;;-0.13;97.85;98137.22;29373;222;63009;-60
2023/02/15 00:19:49;;;;;;;0.80;0.80;;;;;;;-0.14;97.85;98135.59;29372;290;64004;-59
2023/02/15 00:20:20;;;;;;;0.60;0.60;;;;;;;-0.15;97.58;98130.44;29371;261;64013;-61
2023/02/15 00:20:51;;;;;;;0.60;0.60;;;;;;;-0.16;97.66;98131.47;29373;233;63004;-61
2023/02/15 00:21:22;;;;;;;0.70;0.70;;;;;;;-0.18;97.57;98134.31;29373;260;63009;-60
2023/02/15 00:21:54;;;;;;;0.60;0.60;;;;;;;-0.19;97.69;98132.66;29373;207;63017;-59
2023/02/15 00:22:26;;;;;;;0.68;0.68;;;;;;;-0.19;97.52;98129.19;29373;244;63008;-59
2023/02/15 00:22:57;;;;;;;0.70;0.70;;;;;;;-0.21;97.35;98134.69;29373;211;63004;-60
2023/02/15 00:23:28;;;;;;;0.60;0.60;;;;;;;-0.22;97.60;98133.06;29373;216;63009;-67
2023/02/15 00:24:02;;;;;;;0.60;0.60;;;;;;;-0.23;97.55;98126.06;29373;257;63005;-59
2023/02/15 00:24:33;;;;;;;0.60;0.60;;;;;;;-0.23;97.82;98131.41;29373;228;63009;-59
2023/02/15 00:25:05;;;;;;;1.12;1.12;;;;;;;-0.23;97.21;98130.56;29373;251;63005;-60
2023/02/15 00:25:36;;;;;;;0.82;0.82;;;;;;;-0.24;97.35;98127.09;29371;207;64013;-60
2023/02/15 00:26:10;;;;;;;0.60;0.60;;;;;;;-0.24;97.41;98129.75;29373;293;63005;-59
2023/02/15 00:26:43;;;;;;;0.60;0.60;;;;;;;-0.26;97.62;98130.97;29373;233;63015;-59
2023/02/15 00:27:14;;;;;;;1.00;1.00;;;;;;;-0.27;97.61;98130.12;29373;233;63011;-60
2023/02/15 00:27:45;;;;;;;0.70;0.70;;;;;;;-0.25;97.43;98125.44;29371;312;64013;-60
2023/02/15 00:28:19;;;;;;;0.60;0.60;;;;;;;-0.23;97.57;98130.56;29373;202;63004;-59
2023/02/15 00:28:52;;;;;;;0.60;0.60;;;;;;;-0.22;97.54;98127.72;29373;220;63009;-60
2023/02/15 00:29:24;;;;;;;0.60;0.60;;;;;;;-0.23;97.72;98126.06;29371;223;64009;-60
2023/02/15 00:29:55;;;;;;;1.00;1.00;;;;;;;-0.24;97.66;98127.09;29373;265;63008;-59
2023/02/15 00:30:26;;;;;;;0.70;0.70;;;;;;;-0.23;97.96;98131.41;29373;305;63004;-59
2023/02/15 00:31:09;;;;;;;0.70;0.70;;;;;;;-0.24;97.68;98123.59;29372;221;64009;-69
2023/02/15 00:31:41;;;;;;;0.68;0.68;;;;;;;-0.25;97.72;98130.78;29371;206;64009;-59
2023/02/15 00:32:12;;;;;;;0.60;0.60;;;;;;;-0.26;97.74;98126.44;29373;252;63015;-59
2023/02/15 00:32:43;;;;;;;0.70;0.70;;;;;;;-0.26;98.19;98126.44;29373;208;63005;-60
2023/02/15 00:33:15;;;;;;;0.62;0.62;;;;;;;-0.26;97.97;98134.47;29373;202;63009;-59
2023/02/15 00:33:47;;;;;;;0.60;0.60;;;;;;;-0.26;98.19;98130.97;29373;256;63005;-59
2023/02/15 00:34:24;;;;;;;0.60;0.60;;;;;;;-0.27;98.04;98130.12;29373;262;63009;-60
2023/02/15 00:34:55;;;;;;;0.70;0.70;;;;;;;-0.27;98.20;98126.66;29373;246;63004;-60
2023/02/15 00:35:26;;;;;;;0.65;0.65;;;;;;;-0.29;98.04;98126.84;29373;215;63015;-60
2023/02/15 00:35:59;;;;;;;0.62;0.62;;;;;;;-0.28;97.95;98123.16;29373;233;63004;-60
2023/02/15 00:36:30;;;;;;;0.70;0.70;;;;;;;-0.27;97.93;98124.81;29373;278;63009;-61
2023/02/15 00:37:02;;;;;;;0.60;0.60;;;;;;;-0.26;98.20;98122.97;29371;218;64009;-59
2023/02/15 00:37:33;;;;;;;0.60;0.60;;;;;;;-0.27;97.94;98124.81;29373;196;63008;-60
2023/02/15 00:38:04;;;;;;;0.65;0.65;;;;;;;-0.25;98.33;98121.94;29373;196;63004;-59
2023/02/15 00:38:36;;;;;;;0.60;0.60;;;;;;;-0.27;98.05;98119.47;29373;255;63009;-60
2023/02/15 00:39:07;;;;;;;0.70;0.70;;;;;;;-0.27;98.42;98122.12;29373;280;63015;-60
2023/02/15 00:39:39;;;;;;;0.60;0.60;;;;;;;-0.28;98.50;98117.81;29373;233;63009;-59
2023/02/15 00:40:11;;;;;;;0.70;0.70;;;;;;;-0.27;98.26;98130.12;29373;221;63005;-59
2023/02/15 00:40:42;;;;;;;0.70;0.70;;;;;;;-0.28;97.98;98128.50;29373;251;63009;-59
2023/02/15 00:41:13;;;;;;;0.70;0.70;;;;;;;-0.29;98.42;98118.84;29373;212;63005;-60
2023/02/15 00:41:45;;;;;;;0.60;0.60;;;;;;;-0.29;97.95;98124.16;29373;231;63009;-60
2023/02/15 00:42:17;;;;;;;0.77;0.77;;;;;;;-0.29;98.10;98126.84;29371;196;64009;-68
2023/02/15 00:42:48;;;;;;;0.60;0.60;;;;;;;-0.28;98.52;98125.81;29371;206;64013;-59
2023/02/15 00:43:19;;;;;;;2.20;2.15;;;;;;;-0.30;98.26;98125.19;29373;289;63004;-59
2023/02/15 00:43:50;;;;;;;0.70;0.70;;;;;;;-0.31;98.11;98117.38;29373;202;63009;-59
2023/02/15 00:44:22;;;;;;;0.70;0.70;;;;;;;-0.32;98.34;98119.22;29373;233;63004;-59
2023/02/15 00:44:53;;;;;;;1.15;1.15;;;;;;;-0.30;98.32;98124.38;29373;222;63009;-61
2023/02/15 00:45:24;;;;;;;3.35;3.25;;;;;;;-0.31;98.19;98118.22;29373;234;63004;-59
2023/02/15 00:45:56;;;;;;;0.60;0.60;;;;;;;-0.33;98.32;98120.25;29373;211;63005;-59
2023/02/15 00:46:28;;;;;;;0.60;0.60;;;;;;;-0.34;98.12;98118.59;29373;202;63009;-60
2023/02/15 00:46:59;;;;;;;0.60;0.60;;;;;;;-0.35;98.20;98111.63;29373;222;63009;-59
2023/02/15 00:47:30;;;;;;;0.60;0.60;;;;;;;-0.36;98.20;98115.31;29373;203;63005;-59
2023/02/15 00:48:03;;;;;;;0.60;0.60;;;;;;;-0.37;98.22;98119.00;29371;218;64013;-60
2023/02/15 00:48:34;;;;;;;0.60;0.60;;;;;;;-0.37;98.52;98124.34;29373;237;63005;-68
2023/02/15 00:49:06;;;;;;;0.60;0.60;;;;;;;-0.37;98.22;98124.34;29373;254;63016;-59
2023/02/15 00:49:37;;;;;;;0.60;0.60;;;;;;;-0.37;98.48;98125.16;29373;206;63004;-59
2023/02/15 00:50:09;;;;;;;0.60;0.60;;;;;;;-0.36;98.37;98126.81;29373;251;63009;-59
2023/02/15 00:50:40;;;;;;;0.70;0.70;;;;;;;-0.37;98.43;98130.50;29373;196;63004;-60
2023/02/15 00:51:12;;;;;;;0.60;0.60;;;;;;;-0.35;98.26;98122.31;29373;230;63009;-60
2023/02/15 00:51:43;;;;;;;0.60;0.60;;;;;;;-0.35;98.51;98123.09;29373;252;63012;-60
2023/02/15 00:52:15;;;;;;;0.90;0.90;;;;;;;-0.35;98.17;98124.97;29373;199;63013;-60
2023/02/15 00:52:46;;;;;;;0.60;0.60;;;;;;;-0.34;98.43;98126.59;29373;222;63004;-60
2023/02/15 00:53:18;;;;;;;0.70;0.70;;;;;;;-0.32;98.65;98124.56;29371;201;64013;-59
2023/02/15 00:53:49;;;;;;;0.60;0.60;;;;;;;-0.29;98.51;98124.16;29373;206;63005;-60
2023/02/15 00:54:21;;;;;;;0.60;0.60;;;;;;;-0.28;98.23;98117.81;29371;197;64013;-59
2023/02/15 00:54:52;;;;;;;0.60;0.60;;;;;;;-0.25;98.67;98128.09;29373;320;63005;-60
2023/02/15 00:55:23;;;;;;;0.60;0.60;;;;;;;-0.20;98.32;98119.53;29373;210;63017;-59
2023/02/15 00:55:55;;;;;;;0.65;0.65;;;;;;;-0.15;98.51;98119.78;29373;209;63005;-60
2023/02/15 00:56:28;;;;;;;0.60;0.60;;;;;;;-0.11;98.35;98123.69;29373;230;63009;-60
2023/02/15 00:56:59;;;;;;;0.60;0.60;;;;;;;-0.09;98.20;98129.66;29373;210;63004;-59
2023/02/15 00:57:30;;;;;;;0.60;0.60;;;;;;;-0.09;97.87;98125.16;29373;222;63009;-61
2023/02/15 00:58:02;;;;;;;0.60;0.60;;;;;;;-0.08;97.95;98118.81;29373;210;63004;-59
2023/02/15 00:58:35;;;;;;;0.60;0.60;;;;;;;-0.09;97.89;98125.16;29373;209;63009;-59
2023/02/15 00:59:08;;;;;;;0.60;0.60;;;;;;;-0.09;97.83;98130.50;29373;229;63004;-59
2023/02/15 00:59:40;;;;;;;0.70;0.70;;;;;;;-0.11;97.75;98121.84;29371;245;64004;-61
2023/02/15 01:00:13;;;;;;;0.60;0.60;;;;;;;-0.11;97.57;98131.69;29373;245;63005;-60
2023/02/15 01:00:46;;;;;;;0.70;0.70;;;;;;;-0.17;97.28;98124.47;29373;219;63018;-60
2023/02/15 01:01:19;;;;;;;0.95;0.95;;;;;;;-0.22;98.03;98126.91;29373;218;63005;-58
2023/02/15 01:01:50;;;;;;;1.02;1.02;;;;;;;-0.24;98.25;98126.25;29373;206;63009;-60
2023/02/15 01:02:21;;;;;;;0.60;0.60;;;;;;;-0.26;98.03;98121.13;29373;215;63005;-60
2023/02/15 01:02:53;;;;;;;0.60;0.60;;;;;;;-0.24;97.81;98127.09;29373;220;63012;-59
2023/02/15 01:03:24;;;;;;;1.10;1.10;;;;;;;-0.23;98.10;98126.06;29373;200;63005;-59
2023/02/15 01:03:56;;;;;;;0.60;0.60;;;;;;;-0.21;97.58;98124.03;29373;218;63009;-59
2023/02/15 01:04:27;;;;;;;0.70;0.70;;;;;;;-0.19;97.99;98126.50;29373;230;63007;-59
2023/02/15 01:04:58;;;;;;;0.70;0.70;;;;;;;-0.18;97.62;98122.81;29371;222;64013;-59
2023/02/15 01:05:30;;;;;;;0.70;0.70;;;;;;;-0.18;97.90;98123.66;29373;227;63004;-59
2023/02/15 01:06:04;;;;;;;0.60;0.60;;;;;;;-0.18;97.54;98120.16;29371;221;64013;-58
2023/02/15 01:06:35;;;;;;;0.60;0.60;;;;;;;-0.18;97.82;98117.50;29373;223;63004;-60
2023/02/15 01:07:07;;;;;;;0.60;0.60;;;;;;;-0.17;97.95;98117.28;29373;220;63008;-60
2023/02/15 01:07:38;;;;;;;0.60;0.60;;;;;;;-0.18;97.78;98123.66;29373;198;63005;-60
2023/02/15 01:08:10;;;;;;;0.60;0.60;;;;;;;-0.18;97.53;98115.66;29373;257;63009;-60
2023/02/15 01:08:42;;;;;;;0.60;0.60;;;;;;;-0.17;97.62;98113.81;29373;267;63005;-59
2023/02/15 01:09:13;;;;;;;0.60;0.60;;;;;;;-0.18;97.76;98112.97;29373;203;63009;-60
2023/02/15 01:09:45;;;;;;;0.93;0.93;;;;;;;-0.17;97.88;98108.47;29371;245;64009;-69
2023/02/15 01:10:17;;;;;;;0.60;0.60;;;;;;;-0.17;97.88;98109.28;29373;231;63009;-60
2023/02/15 01:10:49;;;;;;;0.60;0.60;;;;;;;-0.16;97.60;98107.44;29373;212;63005;-59
2023/02/15 01:11:22;;;;;;;0.60;0.60;;;;;;;-0.15;97.71;98117.94;29373;198;63009;-60
2023/02/15 01:11:54;;;;;;;0.60;0.60;;;;;;;-0.17;97.63;98109.28;29373;218;63004;-60
2023/02/15 01:12:25;;;;;;;0.70;0.70;;;;;;;-0.19;97.50;98114.00;29373;203;63009;-59
2023/02/15 01:12:56;;;;;;;1.02;1.02;;;;;;;-0.19;97.67;98111.31;29372;202;63004;-59
2023/02/15 01:13:28;;;;;;;0.60;0.60;;;;;;;-0.18;97.39;98112.97;29373;275;63009;-59
2023/02/15 01:13:59;;;;;;;0.60;0.60;;;;;;;-0.16;97.57;98110.94;29373;271;63004;-60
2023/02/15 01:14:30;;;;;;;0.60;0.60;;;;;;;-0.16;97.58;98113.59;29371;275;64013;-60
2023/02/15 01:15:02;;;;;;;0.60;0.60;;;;;;;-0.16;97.44;98116.28;29373;210;63007;-60
2023/02/15 01:15:35;;;;;;;0.60;0.60;;;;;;;-0.16;97.10;98116.28;29373;225;63009;-59
2023/02/15 01:16:07;;;;;;;0.60;0.60;;;;;;;-0.16;97.51;98121.62;29373;268;63005;-59
2023/02/15 01:16:38;;;;;;;0.60;0.60;;;;;;;-0.17;97.16;98117.28;29373;198;63017;-60
2023/02/15 01:17:09;;;;;;;0.60;0.60;;;;;;;-0.16;97.23;98116.28;29373;213;63005;-59
2023/02/15 01:17:41;;;;;;;0.60;0.60;;;;;;;-0.16;97.20;98113.59;29373;224;63005;-60
2023/02/15 01:18:15;;;;;;;0.60;0.60;;;;;;;-0.15;97.31;98117.94;29373;249;63005;-60
2023/02/15 01:18:46;;;;;;;0.60;0.60;;;;;;;-0.16;97.33;98116.28;29373;207;63009;-60
2023/02/15 01:19:18;;;;;;;0.70;0.70;;;;;;;-0.16;97.18;98116.28;29373;196;63005;-60
2023/02/15 01:19:49;;;;;;;0.60;0.60;;;;;;;-0.16;97.12;98110.94;29371;221;64013;-59
2023/02/15 01:20:22;;;;;;;0.62;0.62;;;;;;;-0.15;96.95;98117.09;29373;215;63004;-60
2023/02/15 01:20:53;;;;;;;0.60;0.60;;;;;;;-0.16;97.09;98118.13;29373;256;63009;-59
2023/02/15 01:21:26;;;;;;;0.60;0.60;;;;;;;-0.17;97.11;98114.62;29371;272;64009;-59
2023/02/15 01:21:57;;;;;;;0.60;0.60;;;;;;;-0.16;97.33;98115.44;29373;220;63008;-60
2023/02/15 01:22:28;;;;;;;0.60;0.60;;;;;;;-0.16;96.94;98118.94;29373;208;63007;-60
2023/02/15 01:23:00;;;;;;;0.60;0.60;;;;;;;-0.15;97.25;98114.44;29372;225;63009;-70
2023/02/15 01:23:33;;;;;;;0.55;0.55;;;;;;;-0.15;97.31;98115.25;29373;209;63005;-60
2023/02/15 01:24:14;;;;;;;0.60;0.60;;;;;;;-0.18;96.66;98118.31;29373;224;63009;-59
2023/02/15 01:24:48;;;;;;;0.68;0.68;;;;;;;-0.23;96.62;98120.72;29371;211;64009;-59
2023/02/15 01:25:21;;;;;;;0.60;0.60;;;;;;;-0.27;96.24;98119.47;29373;207;63009;-60
2023/02/15 01:25:52;;;;;;;0.70;0.70;;;;;;;-0.29;96.68;98120.69;29371;199;64009;-59
2023/02/15 01:26:24;;;;;;;0.68;0.68;;;;;;;-0.31;96.45;98112.03;29373;229;63009;-60
2023/02/15 01:26:56;;;;;;;0.62;0.62;;;;;;;-0.33;97.04;98120.25;29373;206;63004;-59
2023/02/15 01:27:30;;;;;;;0.60;0.60;;;;;;;-0.37;96.80;98122.50;29373;198;63009;-60
2023/02/15 01:28:02;;;;;;;0.60;0.60;;;;;;;-0.38;97.58;98117.34;29373;210;63004;-60
2023/02/15 01:28:34;;;;;;;0.68;0.68;;;;;;;-0.39;97.11;98118.37;29373;211;63027;-59
2023/02/15 01:29:05;;;;;;;0.60;0.60;;;;;;;-0.38;97.53;98117.34;29373;196;63004;-59
2023/02/15 01:29:36;;;;;;;0.70;0.70;;;;;;;-0.37;97.57;98119.00;29373;220;63008;-59
2023/02/15 01:30:08;;;;;;;0.60;0.60;;;;;;;-0.37;97.41;98121.66;29373;212;63004;-59
2023/02/15 01:30:40;;;;;;;0.60;0.60;;;;;;;-0.37;97.58;98119.00;29373;280;63009;-69
2023/02/15 01:31:14;;;;;;;0.60;0.60;;;;;;;-0.35;97.44;98122.31;29371;197;64009;-58
2023/02/15 01:31:45;;;;;;;0.60;0.60;;;;;;;-0.36;97.29;98120.66;29373;247;63009;-59
2023/02/15 01:32:16;;;;;;;0.60;0.60;;;;;;;-0.37;97.58;98127.00;29373;294;63005;-61
2023/02/15 01:32:47;;;;;;;0.60;0.60;;;;;;;-0.38;97.43;98117.34;29373;203;63009;-59
2023/02/15 01:33:19;;;;;;;0.60;0.60;;;;;;;-0.37;97.68;98124.34;29373;196;63005;-60
2023/02/15 01:33:50;;;;;;;0.70;0.70;;;;;;;-0.38;97.60;98123.50;29373;218;63009;-60
2023/02/15 01:34:22;;;;;;;0.60;0.60;;;;;;;-0.39;97.65;98126.37;29373;240;63005;-59
2023/02/15 01:34:53;;;;;;;0.80;0.80;;;;;;;-0.41;97.51;98123.06;29373;202;63016;-60
2023/02/15 01:35:26;;;;;;;1.12;1.02;;;;;;;-0.43;97.69;98128.59;29373;198;63004;-60
2023/02/15 01:36:01;;;;;;;0.60;0.60;;;;;;;-0.44;97.45;98118.94;29373;213;63009;-59
2023/02/15 01:36:35;;;;;;;0.60;0.60;;;;;;;-0.46;97.29;98120.16;29371;257;64009;-60
2023/02/15 01:37:06;;;;;;;0.60;0.60;;;;;;;-0.51;97.29;98117.25;29373;204;63008;-59
2023/02/15 01:37:37;;;;;;;0.70;0.70;;;;;;;-0.53;97.75;98113.94;29373;250;63010;-60
2023/02/15 01:38:08;;;;;;;0.70;0.70;;;;;;;-0.52;97.44;98112.94;29373;199;63009;-60
2023/02/15 01:38:40;;;;;;;0.60;0.60;;;;;;;-0.51;97.91;98122.56;29373;214;63005;-59
2023/02/15 01:39:14;;;;;;;0.70;0.70;;;;;;;-0.54;97.53;98112.28;29373;220;63009;-67
2023/02/15 01:39:46;;;;;;;0.60;0.60;;;;;;;-0.56;97.67;98111.66;29373;267;63000;-60
2023/02/15 01:40:18;;;;;;;0.60;0.60;;;;;;;-0.56;98.20;98117.00;29373;222;63009;-62
2023/02/15 01:41:19;;;;;;;0.60;0.60;;;;;;;-0.56;98.14;98119.66;29373;212;63005;-60
2023/02/15 01:41:45;;;;;;;0.82;0.82;;;;;;;-0.59;97.90;98115.53;29371;236;64013;-60
2023/02/15 01:42:23;;;;;;;0.75;0.75;;;;;;;-0.65;97.84;98110.13;29373;204;63004;-60
2023/02/15 01:42:55;;;;;;;0.60;0.60;;;;;;;-0.71;97.97;98117.91;29373;224;63009;-60
2023/02/15 01:43:43;;;;;;;0.70;0.70;;;;;;;-0.71;98.12;98114.41;29373;210;63004;-60
2023/02/15 01:44:47;;;;;;;0.60;0.60;;;;;;;-0.68;98.27;98114.84;29373;239;63017;-60
2023/02/15 01:45:30;;;;;;;0.62;0.62;;;;;;;-0.65;98.26;98115.47;29373;231;63008;-61
2023/02/15 01:46:02;;;;;;;0.70;0.70;;;;;;;-0.64;98.44;98114.44;29373;234;63005;-60
2023/02/15 01:46:39;;;;;;;0.70;0.70;;;;;;;-0.63;98.40;98114.25;29373;219;63015;-59
2023/02/15 01:47:14;;;;;;;0.70;0.70;;;;;;;-0.62;98.33;98112.41;29371;204;64009;-60
2023/02/15 01:48:10;;;;;;;0.70;0.70;;;;;;;-0.60;98.36;98107.72;29373;199;63009;-60
2023/02/15 01:48:48;;;;;;;0.60;0.60;;;;;;;-0.57;98.12;98112.66;29373;210;63005;-61
2023/02/15 01:49:25;;;;;;;0.60;0.60;;;;;;;-0.56;98.55;98115.16;29373;218;63017;-60
2023/02/15 01:50:18;;;;;;;0.60;0.60;;;;;;;-0.56;98.23;98101.81;29373;220;63004;-60
2023/02/15 01:50:58;;;;;;;0.70;0.70;;;;;;;-0.55;98.53;98102.63;29373;203;63016;-70
2023/02/15 01:51:33;;;;;;;0.60;0.60;;;;;;;-0.54;98.27;98101.63;29373;250;63004;-60
2023/02/15 01:52:05;;;;;;;0.60;0.60;;;;;;;-0.54;98.32;98101.63;29371;209;64013;-60
2023/02/15 01:52:40;;;;;;;0.65;0.65;;;;;;;-0.53;98.42;98103.28;29373;291;63004;-61
2023/02/15 01:53:27;;;;;;;0.70;0.70;;;;;;;-0.52;98.64;98102.25;29373;249;63009;-60
2023/02/15 01:54:10;;;;;;;0.62;0.62;;;;;;;-0.57;98.05;98100.16;29373;237;63005;-60
2023/02/15 01:54:43;;;;;;;0.60;0.60;;;;;;;-0.60;98.42;98097.06;29373;212;63013;-60
2023/02/15 01:55:15;;;;;;;0.60;0.60;;;;;;;-0.63;98.68;98100.94;29373;249;63005;-60
2023/02/15 01:55:57;;;;;;;0.60;0.60;;;;;;;-0.65;98.62;98100.28;29373;218;63009;-68
2023/02/15 01:56:33;;;;;;;0.68;0.68;;;;;;;-0.67;98.38;98107.66;29373;215;63004;-60
2023/02/15 01:57:20;;;;;;;0.60;0.60;;;;;;;-0.69;99.16;98099.84;29371;210;64013;-60
2023/02/15 01:57:52;;;;;;;0.60;0.60;;;;;;;-0.69;98.89;98099.84;29373;202;63004;-60
2023/02/15 01:58:26;;;;;;;0.60;0.60;;;;;;;-0.69;99.04;98097.19;29373;197;63009;-60
2023/02/15 01:59:03;;;;;;;0.60;0.60;;;;;;;-0.69;98.89;98102.53;29373;206;63009;-60
2023/02/15 01:59:38;;;;;;;0.70;0.70;;;;;;;-0.69;99.13;98105.19;29373;237;63008;-60
2023/02/15 02:00:10;;;;;;;0.60;0.60;;;;;;;-0.69;99.03;98099.84;29373;246;63004;-60
2023/02/15 02:00:42;;;;;;;0.60;0.60;;;;;;;-0.68;98.63;98101.50;29373;220;63009;-60
2023/02/15 02:01:14;;;;;;;0.60;0.60;;;;;;;-0.68;98.98;98101.50;29373;197;63005;-61
2023/02/15 02:01:46;;;;;;;0.60;0.60;;;;;;;-0.69;99.17;98105.19;29371;234;64013;-60
2023/02/15 02:02:20;;;;;;;0.60;0.60;;;;;;;-0.70;98.90;98098.22;29373;206;63005;-60
2023/02/15 02:02:55;;;;;;;0.60;0.60;;;;;;;-0.69;98.95;98093.69;29371;226;64013;-61
2023/02/15 02:04:01;;;;;;;0.60;0.60;;;;;;;-0.64;99.23;98101.13;29373;211;63005;-61
2023/02/15 02:04:46;;;;;;;0.60;0.60;;;;;;;-0.61;99.39;98096.22;29373;202;63004;-60
2023/02/15 02:05:18;;;;;;;0.60;0.60;;;;;;;-0.58;99.49;98092.34;29373;223;63009;-60
2023/02/15 02:05:50;;;;;;;0.60;0.60;;;;;;;-0.57;99.49;98096.69;29373;199;63004;-60
2023/02/15 02:06:21;;;;;;;0.70;0.70;;;;;;;-0.57;99.18;98099.34;29373;210;63008;-59
2023/02/15 02:06:54;;;;;;;0.60;0.60;;;;;;;-0.55;99.75;98099.97;29373;202;63004;-60
2023/02/15 02:07:32;;;;;;;0.60;0.60;;;;;;;-0.55;99.49;98099.97;29373;236;63009;-71
2023/02/15 02:08:04;;;;;;;0.60;0.60;;;;;;;-0.55;99.06;98099.97;29371;199;64009;-60
2023/02/15 02:08:36;;;;;;;0.60;0.60;;;;;;;-0.57;99.35;98100.16;29373;234;63009;-60
2023/02/15 02:09:08;;;;;;;0.60;0.60;;;;;;;-0.59;99.23;98101.38;29373;230;63012;-60
2023/02/15 02:09:39;;;;;;;0.60;0.60;;;;;;;-0.58;98.94;98097.69;29373;215;63009;-60
2023/02/15 02:10:14;;;;;;;0.90;0.90;;;;;;;-0.56;99.09;98095.66;29373;227;63005;-60
2023/02/15 02:10:45;;;;;;;0.60;0.60;;;;;;;-0.60;98.56;98097.88;29373;217;63016;-61
2023/02/15 02:11:16;;;;;;;0.60;0.60;;;;;;;-0.63;99.04;98092.94;29371;259;64009;-60
2023/02/15 02:11:49;;;;;;;0.60;0.60;;;;;;;-0.62;98.92;98093.75;29373;267;63009;-60
2023/02/15 02:12:22;;;;;;;1.87;1.87;;;;;;;-0.61;99.05;98098.91;29373;240;63004;-60
2023/02/15 02:13:04;;;;;;;5.25;4.72;;;;;;;-0.60;98.88;98086.41;29373;241;63004;-60
2023/02/15 02:13:35;;;;;;;0.60;0.60;;;;;;;-0.59;99.23;98094.19;29373;203;63014;-60
2023/02/15 02:14:07;;;;;;;0.70;0.70;;;;;;;-0.58;99.00;98095.03;29373;252;63008;-60
2023/02/15 02:14:41;;;;;;;0.60;0.60;;;;;;;-0.58;99.35;98095.84;29373;252;63004;-61
2023/02/15 02:15:13;;;;;;;0.60;0.60;;;;;;;-0.58;99.36;98090.53;29373;245;63009;-60
2023/02/15 02:15:59;;;;;;;0.60;0.60;;;;;;;-0.56;99.51;98093.00;29373;261;63018;-59
2023/02/15 02:16:52;;;;;;;0.62;0.62;;;;;;;-0.55;99.48;98086.66;29371;281;64013;-60
2023/02/15 02:18:24;;;;;;;0.60;0.60;;;;;;;-0.52;99.46;98083.59;29373;232;63005;-60
2023/02/15 02:19:41;;;;;;;0.70;0.70;;;;;;;-0.50;99.27;98086.91;29373;206;63009;-60
2023/02/15 02:20:57;;;;;;;0.70;0.70;;;;;;;-0.53;99.40;98082.78;29373;202;63004;-60
2023/02/15 02:22:31;;;;;;;0.70;0.70;;;;;;;-0.54;99.11;98083.78;29373;242;63008;-60
2023/02/15 02:23:44;;;;;;;0.70;0.70;;;;;;;-0.55;99.33;98090.13;29371;233;63998;-60
2023/02/15 02:25:06;;;;;;;0.80;0.80;;;;;;;-0.57;99.25;98086.00;29393;199;64013;-59
2023/02/15 02:26:25;;;;;;;0.62;0.62;;;;;;;-0.63;99.23;98082.28;29395;231;63005;-60
2023/02/15 02:27:23;;;;;;;0.62;0.62;;;;;;;-0.64;99.19;98083.28;29373;268;63009;-60
2023/02/15 02:28:25;;;;;;;0.70;0.70;;;;;;;-0.65;99.41;98078.16;29373;200;63025;-61
2023/02/15 02:29:45;;;;;;;0.70;0.70;;;;;;;-0.65;99.38;98081.63;29373;261;63004;-59
2023/02/15 02:31:16;;;;;;;0.70;0.70;;;;;;;-0.64;99.11;98085.12;29371;226;64014;-60
2023/02/15 02:32:42;;;;;;;0.60;0.60;;;;;;;-0.65;99.20;98086.16;29373;214;63005;-60
2023/02/15 02:34:03;;;;;;;0.70;0.70;;;;;;;-0.62;99.67;98083.09;29373;243;63009;-58
2023/02/15 02:35:35;;;;;;;0.70;0.70;;;;;;;-0.62;99.52;98077.75;29371;197;64009;-70
2023/02/15 02:36:45;;;;;;;0.70;0.70;;;;;;;-0.62;99.32;98078.59;29373;317;63009;-59
2023/02/15 02:38:01;;;;;;;0.60;0.60;;;;;;;-0.59;99.41;98077.38;29371;238;63999;-59
2023/02/15 02:39:06;;;;;;;1.08;1.08;;;;;;;-0.60;99.78;98086.41;29373;203;63009;-59
2023/02/15 02:40:10;;;;;;;0.80;0.80;;;;;;;-0.63;99.55;98086.78;29371;196;64013;-59
2023/02/15 02:41:16;;;;;;;0.70;0.70;;;;;;;-0.53;99.72;98077.44;29373;202;63005;-59
2023/02/15 02:42:11;;;;;;;0.70;0.70;;;;;;;-0.50;98.87;98078.91;29373;207;63018;-58
2023/02/15 02:42:49;;;;;;;1.75;1.65;;;;;;;-0.50;99.29;98081.56;29373;214;63004;-58
2023/02/15 02:43:54;;;;;;;0.60;0.60;;;;;;;-0.50;99.32;98076.22;29373;206;63009;-59
2023/02/15 02:44:54;;;;;;;0.70;0.70;;;;;;;-0.51;99.26;98079.91;29373;216;63008;-59
2023/02/15 02:46:05;;;;;;;0.60;0.60;;;;;;;-0.54;99.43;98070.47;29371;212;64009;-59
2023/02/15 02:46:50;;;;;;;0.70;0.70;;;;;;;-0.58;99.71;98073.69;29373;227;63009;-59
2023/02/15 02:47:30;;;;;;;0.70;0.70;;;;;;;-0.62;100.00;98072.44;29373;236;63005;-59
2023/02/15 02:48:13;;;;;;;0.60;0.60;;;;;;;-0.62;99.88;98075.09;29373;211;63009;-68
2023/02/15 02:48:46;;;;;;;0.70;0.70;;;;;;;-0.63;99.73;98071.59;29373;244;63005;-58
2023/02/15 02:49:27;;;;;;;5.93;5.32;;;;;;;-0.64;99.92;98079.78;29373;230;63009;-59
2023/02/15 02:50:05;;;;;;;0.70;0.70;;;;;;;-0.64;99.43;98085.94;29373;208;63004;-59
2023/02/15 02:50:41;;;;;;;0.70;0.70;;;;;;;-0.63;99.45;98078.78;29371;266;64013;-59
2023/02/15 02:51:13;;;;;;;0.70;0.70;;;;;;;-0.64;99.14;98077.12;29373;224;63004;-59
2023/02/15 02:51:45;;;;;;;0.60;0.60;;;;;;;-0.63;99.80;98081.44;29373;198;63008;-59
2023/02/15 02:52:39;;;;;;;0.60;0.60;;;;;;;-0.61;99.57;98082.09;29371;217;64008;-60
2023/02/15 02:53:11;;;;;;;0.60;0.60;;;;;;;-0.60;99.11;98076.56;29373;259;63005;-68
2023/02/15 02:53:42;;;;;;;0.80;0.80;;;;;;;-0.65;98.26;98075.47;29373;209;63009;-59
2023/02/15 02:54:13;;;;;;;0.60;0.60;;;;;;;-0.70;98.65;98076.91;29373;202;63005;-60
2023/02/15 02:54:46;;;;;;;0.60;0.60;;;;;;;-0.74;98.71;98086.31;29373;227;63009;-68
2023/02/15 02:55:44;;;;;;;0.68;0.68;;;;;;;-0.76;98.74;98077.69;29373;252;63005;-60
2023/02/15 02:56:27;;;;;;;0.70;0.70;;;;;;;-0.76;98.71;98085.66;29373;198;63009;-59